Terminal Aerodrome Forecast
Issued by NWS

Home | Current Version | Previous Version | Text Only | Print | Product List | Glossary On
Versions: 1 2 3 4 5 6 7 8 9 10 11 12 13 14 15 16 17 18 19
000
FTAK31 PANC 241740
TAFACD
TAF
PACD 241740Z 2418/2518 VRB03KT 3SM BR SCT002 BKN006 OVC010
      TEMPO 2418/2420 1SM BR BKN002
     FM242100 19008KT P6SM VCSH SCT010 BKN025
     FM250900 16008KT 4SM BR SCT007 BKN010
     FM251500 18004KT 2SM BR OVC007=

USA.gov is the U.S. government's official web portal to all federal, state and local government web resources and services.